createdAt,value
2019-03-03T00:01:54.585Z,33.90
2019-03-03T00:04:28.187Z,34.07
2019-03-03T00:07:01.888Z,32.50
2019-03-03T00:09:35.626Z,31.57
2019-03-03T00:12:09.300Z,34.97
2019-03-03T00:14:43.007Z,34.13
2019-03-03T00:17:17.041Z,37.00
2019-03-03T00:19:50.718Z,37.00
2019-03-03T00:22:24.315Z,36.60
2019-03-03T00:24:58.052Z,31.33
2019-03-03T00:27:31.728Z,34.83
2019-03-03T00:30:08.510Z,37.97
2019-03-03T00:32:42.182Z,33.60
2019-03-03T00:35:16.117Z,35.73
2019-03-03T00:37:55.671Z,38.03
2019-03-03T00:40:43.284Z,33.70
2019-03-03T00:43:34.917Z,31.50
2019-03-03T00:46:10.578Z,40.27
2019-03-03T00:48:51.838Z,31.20
2019-03-03T00:51:30.022Z,29.23
2019-03-03T00:54:08.233Z,31.70
2019-03-03T00:56:49.173Z,35.27
2019-03-03T00:59:24.473Z,31.67
2019-03-03T01:02:02.708Z,33.00
2019-03-03T01:04:53.080Z,36.90
2019-03-03T01:07:44.502Z,29.13
2019-03-03T01:10:28.663Z,34.27
2019-03-03T01:13:16.091Z,32.80
2019-03-03T01:16:06.682Z,33.30
2019-03-03T01:18:47.596Z,34.97
2019-03-03T01:21:41.366Z,32.00
2019-03-03T01:24:19.470Z,30.40
2019-03-03T01:26:53.144Z,30.47
2019-03-03T01:29:27.122Z,32.73
2019-03-03T01:32:02.758Z,31.20
2019-03-03T01:34:36.487Z,32.47
2019-03-03T01:37:10.320Z,27.40
2019-03-03T01:39:43.940Z,33.57
2019-03-03T01:42:17.870Z,26.23
2019-03-03T01:44:51.558Z,28.13
2019-03-03T01:47:25.167Z,31.73
2019-03-03T01:50:00.797Z,29.63
2019-03-03T01:52:34.114Z,30.30
2019-03-03T01:55:11.162Z,32.77
2019-03-03T01:57:44.839Z,31.90
2019-03-03T02:00:26.540Z,34.50
2019-03-03T02:03:00.357Z,29.60
2019-03-03T02:05:34.166Z,34.17
2019-03-03T02:08:08.394Z,33.57
2019-03-03T02:10:42.404Z,32.50
2019-03-03T02:13:18.967Z,30.00
2019-03-03T02:15:52.550Z,32.97
2019-03-03T02:18:26.190Z,34.67
2019-03-03T02:20:59.790Z,32.93
2019-03-03T02:23:33.448Z,35.57
2019-03-03T02:26:07.099Z,37.90
2019-03-03T02:28:40.870Z,34.70
2019-03-03T02:31:14.862Z,40.60
2019-03-03T02:33:48.572Z,32.83
2019-03-03T02:36:22.317Z,34.57
2019-03-03T02:38:55.990Z,29.43
2019-03-03T02:41:29.598Z,31.33
2019-03-03T02:44:03.269Z,35.03
2019-03-03T02:46:36.847Z,29.37
2019-03-03T02:49:10.470Z,31.93
2019-03-03T02:51:44.243Z,34.20
2019-03-03T02:54:18.313Z,39.73
2019-03-03T02:56:52.053Z,34.97
2019-03-03T02:59:25.696Z,31.70
2019-03-03T03:01:59.852Z,31.27
2019-03-03T03:04:33.509Z,35.50
2019-03-03T03:07:14.720Z,28.97
2019-03-03T03:09:55.862Z,31.17
2019-03-03T03:12:31.279Z,31.20
2019-03-03T03:15:08.380Z,35.03
2019-03-03T03:17:43.693Z,32.30
2019-03-03T03:20:28.056Z,27.47
2019-03-03T03:23:09.239Z,25.93
2019-03-03T03:25:44.555Z,27.57
2019-03-03T03:28:35.768Z,32.63
2019-03-03T03:31:26.324Z,30.20
2019-03-03T03:34:10.717Z,31.00
2019-03-03T03:36:46.088Z,36.60
2019-03-03T03:39:30.647Z,37.07
2019-03-03T03:42:15.085Z,30.03
2019-03-03T03:44:50.407Z,33.07
2019-03-03T03:47:31.730Z,31.90
2019-03-03T03:50:15.413Z,32.27
2019-03-03T03:52:57.781Z,29.93
2019-03-03T03:55:49.911Z,33.33
2019-03-03T03:58:31.227Z,36.97
2019-03-03T04:01:22.188Z,34.33
2019-03-03T04:03:57.583Z,30.33
2019-03-03T04:06:33.021Z,32.43
2019-03-03T04:09:11.340Z,30.10
2019-03-03T04:12:01.884Z,36.33
2019-03-03T04:14:37.143Z,32.43
2019-03-03T04:17:18.287Z,32.73
2019-03-03T04:20:08.723Z,29.97
2019-03-03T04:22:46.916Z,36.53
2019-03-03T04:25:22.436Z,35.57
2019-03-03T04:27:57.801Z,34.43
2019-03-03T04:30:35.777Z,34.83
2019-03-03T04:33:27.471Z,34.23
2019-03-03T04:36:11.719Z,36.63
2019-03-03T04:38:56.235Z,35.00
2019-03-03T04:41:37.337Z,35.27
2019-03-03T04:44:12.608Z,33.00
2019-03-03T04:46:53.976Z,39.03
2019-03-03T04:49:29.309Z,38.23
2019-03-03T04:52:07.260Z,35.83
2019-03-03T04:54:42.553Z,33.47
2019-03-03T04:57:18.582Z,45.23
2019-03-03T04:59:53.889Z,31.73
2019-03-03T05:02:45.899Z,34.80
2019-03-03T05:05:21.473Z,33.10
2019-03-03T05:10:58.165Z,36.17
2019-03-03T05:13:33.521Z,31.27
2019-03-03T05:16:11.867Z,37.10
2019-03-03T05:18:47.133Z,36.27
2019-03-03T05:21:21.054Z,36.40
2019-03-03T05:23:54.679Z,34.23
2019-03-03T05:26:28.663Z,38.90
2019-03-03T05:29:02.356Z,32.10
2019-03-03T05:31:36.061Z,35.13
2019-03-03T05:34:09.737Z,38.37
2019-03-03T05:36:43.353Z,35.07
2019-03-03T05:39:17.057Z,44.07
2019-03-03T05:41:50.779Z,35.67
2019-03-03T05:44:24.407Z,39.83
2019-03-03T05:46:58.114Z,35.53
2019-03-03T05:49:31.795Z,37.00
2019-03-03T05:52:05.593Z,38.07
2019-03-03T05:54:39.287Z,41.77
2019-03-03T05:57:13.023Z,39.40
2019-03-03T05:59:46.805Z,40.83
2019-03-03T06:02:20.357Z,42.43
2019-03-03T06:04:53.984Z,43.53
2019-03-03T06:07:29.537Z,40.93
2019-03-03T06:10:04.065Z,41.40
2019-03-03T06:12:37.836Z,45.13
2019-03-03T06:15:14.139Z,40.57
2019-03-03T06:17:48.449Z,40.57
2019-03-03T06:20:22.892Z,42.63
2019-03-03T06:22:58.218Z,41.93
2019-03-03T06:25:32.313Z,40.20
2019-03-03T06:28:06.165Z,47.53
2019-03-03T06:30:39.829Z,47.03
2019-03-03T06:33:13.524Z,35.93
2019-03-03T06:35:50.462Z,37.90
2019-03-03T06:38:24.205Z,43.03
2019-03-03T06:40:58.125Z,43.60
2019-03-03T06:43:34.151Z,43.83
2019-03-03T06:46:10.651Z,37.20
2019-03-03T06:48:44.407Z,42.70
2019-03-03T06:51:18.025Z,41.67
2019-03-03T06:53:51.707Z,45.90
2019-03-03T07:06:46.427Z,46.70
2019-03-03T07:09:20.127Z,44.33
2019-03-03T07:11:53.760Z,48.50
2019-03-03T07:14:27.460Z,48.50
2019-03-03T07:17:01.287Z,50.20
2019-03-03T07:19:35.015Z,44.80
2019-03-03T07:22:10.180Z,46.40
2019-03-03T07:24:43.820Z,44.80
2019-03-03T07:27:17.467Z,46.60
2019-03-03T07:29:51.190Z,48.43
2019-03-03T07:32:25.179Z,51.83
2019-03-03T07:35:02.680Z,43.90
2019-03-03T07:37:36.337Z,46.33
2019-03-03T07:40:10.097Z,53.30
2019-03-03T07:42:44.009Z,77.20
2019-03-03T07:45:17.786Z,102.20
2019-03-03T07:47:51.496Z,67.50
2019-03-03T07:50:25.748Z,57.70
2019-03-03T07:52:59.425Z,54.73
2019-03-03T07:55:33.044Z,57.73
2019-03-03T07:58:07.394Z,51.97
2019-03-03T08:00:41.467Z,50.63
2019-03-03T08:03:15.174Z,48.27
2019-03-03T08:05:48.929Z,55.70
2019-03-03T08:08:22.892Z,55.20
2019-03-03T08:10:56.597Z,52.13
2019-03-03T08:13:30.133Z,50.83
2019-03-03T08:16:04.054Z,49.73
2019-03-03T08:18:37.826Z,50.50
2019-03-03T08:21:11.484Z,47.87
2019-03-03T08:23:45.188Z,47.57
2019-03-03T08:26:18.863Z,45.53
2019-03-03T08:28:52.600Z,47.80
2019-03-03T08:31:26.606Z,63.10
2019-03-03T08:34:00.369Z,50.53
2019-03-03T08:36:33.979Z,49.30
2019-03-03T08:39:07.715Z,51.37
2019-03-03T08:41:42.982Z,45.63
2019-03-03T08:44:18.314Z,49.03
2019-03-03T08:46:56.816Z,46.43
2019-03-03T08:49:32.164Z,52.67
2019-03-03T08:52:07.535Z,54.47
2019-03-03T08:55:00.130Z,52.20
2019-03-03T08:57:35.594Z,45.20
2019-03-03T09:00:14.307Z,53.60
2019-03-03T09:03:05.050Z,50.67
2019-03-03T09:05:49.216Z,49.67
2019-03-03T09:08:27.665Z,49.43
2019-03-03T09:11:02.857Z,51.57
2019-03-03T09:13:38.273Z,49.40
2019-03-03T09:16:13.591Z,45.77
2019-03-03T09:19:05.157Z,49.30
2019-03-03T09:21:49.581Z,55.30
2019-03-03T09:24:41.361Z,52.17
2019-03-03T09:27:19.263Z,49.27
2019-03-03T09:29:54.509Z,49.13
2019-03-03T09:32:29.929Z,50.80
2019-03-03T09:35:22.162Z,48.10
2019-03-03T09:38:12.393Z,47.97
2019-03-03T09:40:47.821Z,50.43
2019-03-03T09:43:32.023Z,53.87
2019-03-03T09:46:19.509Z,54.83
2019-03-03T09:48:54.766Z,51.77
2019-03-03T09:51:35.696Z,46.87
2019-03-03T09:54:11.095Z,53.20
2019-03-03T09:57:04.504Z,50.30
2019-03-03T09:59:39.822Z,50.63
2019-03-03T10:02:15.496Z,50.93
2019-03-03T10:04:50.828Z,52.10
2019-03-03T10:07:44.528Z,53.40
2019-03-03T10:10:26.026Z,50.20
2019-03-03T10:13:10.159Z,48.17
2019-03-03T10:15:45.607Z,51.63
2019-03-03T10:18:32.638Z,53.60
2019-03-03T10:21:10.810Z,51.63
2019-03-03T10:23:49.074Z,58.23
2019-03-03T10:26:42.932Z,56.37
2019-03-03T10:29:21.186Z,53.40
2019-03-03T10:32:12.862Z,54.37
2019-03-03T10:34:48.222Z,52.57
2019-03-03T10:37:29.196Z,61.30
2019-03-03T10:43:05.920Z,65.73
2019-03-03T10:45:53.489Z,63.80
2019-03-03T10:48:34.630Z,62.07
2019-03-03T10:51:18.946Z,67.55
2019-03-03T10:53:57.981Z,64.37
2019-03-03T10:56:33.358Z,65.63
2019-03-03T10:59:24.990Z,68.33
2019-03-03T11:02:08.260Z,62.60
2019-03-03T11:04:49.544Z,59.07
2019-03-03T11:07:41.038Z,72.97
2019-03-03T11:10:16.516Z,67.60
2019-03-03T11:12:54.528Z,69.90
2019-03-03T11:15:42.020Z,72.33
2019-03-03T11:18:33.732Z,72.87
2019-03-03T11:21:11.813Z,72.67
2019-03-03T11:23:47.130Z,71.50
2019-03-03T11:26:22.601Z,68.80
2019-03-03T11:29:00.904Z,70.13
2019-03-03T11:31:39.865Z,68.67
2019-03-03T11:34:17.807Z,66.17
2019-03-03T11:36:53.252Z,66.57
2019-03-03T11:39:28.734Z,68.63
2019-03-03T11:42:13.113Z,69.87
2019-03-03T11:44:53.813Z,65.40
2019-03-03T11:47:34.931Z,64.57
2019-03-03T11:50:11.619Z,56.60
2019-03-03T11:53:05.027Z,59.70
2019-03-03T11:55:56.416Z,52.40
2019-03-03T11:58:34.317Z,54.10
2019-03-03T12:01:16.754Z,53.20
2019-03-03T12:03:52.107Z,56.07
2019-03-03T12:06:46.766Z,53.90
2019-03-03T12:09:23.521Z,53.03
2019-03-03T12:12:17.037Z,57.37
2019-03-03T12:15:01.272Z,58.13
2019-03-03T12:17:54.968Z,53.37
2019-03-03T12:20:30.422Z,53.87
2019-03-03T12:23:14.844Z,52.50
2019-03-03T12:25:58.829Z,53.87
2019-03-03T12:28:50.375Z,52.27
2019-03-03T12:31:43.873Z,47.50
2019-03-03T12:34:37.643Z,50.83
2019-03-03T12:37:13.041Z,53.87
2019-03-03T12:39:51.297Z,54.03
2019-03-03T12:42:29.521Z,50.50
2019-03-03T12:45:04.950Z,49.37
2019-03-03T12:47:40.290Z,46.23
2019-03-03T12:50:30.657Z,52.90
2019-03-03T12:53:15.183Z,55.00
2019-03-03T12:56:05.483Z,44.47
2019-03-03T12:58:40.870Z,49.10
2019-03-03T13:01:28.382Z,43.67
2019-03-03T13:04:05.275Z,44.97
2019-03-03T13:06:40.839Z,44.47
2019-03-03T13:09:35.183Z,40.37
2019-03-03T13:12:10.503Z,35.13
2019-03-03T13:14:54.849Z,37.90
2019-03-03T13:17:33.091Z,35.03
2019-03-03T13:20:13.015Z,35.20
2019-03-03T13:22:57.388Z,29.53
2019-03-03T13:25:34.153Z,29.07
2019-03-03T13:28:12.297Z,31.87
2019-03-03T13:34:12.252Z,27.53
2019-03-03T13:36:47.585Z,30.00
2019-03-03T13:39:22.894Z,26.60
2019-03-03T13:41:58.339Z,27.37
2019-03-03T13:44:32.086Z,24.70
2019-03-03T13:47:05.864Z,24.47
2019-03-03T13:49:39.635Z,22.27
2019-03-03T13:52:13.815Z,28.73
2019-03-03T13:54:47.566Z,21.87
2019-03-03T13:57:21.385Z,22.10
2019-03-03T13:59:55.003Z,21.53
2019-03-03T14:02:28.790Z,18.63
2019-03-03T14:05:02.506Z,19.90
2019-03-03T14:07:36.505Z,20.73
2019-03-03T14:10:11.025Z,20.03
2019-03-03T14:12:45.236Z,21.45
2019-03-03T14:15:20.241Z,17.30
2019-03-03T14:17:53.947Z,19.20
2019-03-03T14:20:27.679Z,17.73
2019-03-03T14:23:01.433Z,19.27
2019-03-03T14:25:35.926Z,14.53
2019-03-03T14:28:09.713Z,16.93
2019-03-03T14:30:43.366Z,16.20
2019-03-03T14:33:17.154Z,15.10
2019-03-03T14:35:50.813Z,17.40
2019-03-03T14:38:24.541Z,16.53
2019-03-03T14:40:58.351Z,15.27
2019-03-03T14:43:33.419Z,15.83
2019-03-03T14:46:07.231Z,13.90
2019-03-03T14:48:40.960Z,13.70
2019-03-03T14:51:14.709Z,15.20
2019-03-03T14:53:48.333Z,17.57
2019-03-03T14:56:22.046Z,13.03
2019-03-03T14:58:55.957Z,13.80
2019-03-03T15:01:29.656Z,13.27
2019-03-03T15:04:03.579Z,16.37
2019-03-03T15:06:37.366Z,16.13
2019-03-03T15:09:15.596Z,15.83
2019-03-03T15:11:49.549Z,16.67
2019-03-03T15:14:23.294Z,17.27
2019-03-03T15:16:58.532Z,15.90
2019-03-03T15:19:32.230Z,15.17
2019-03-03T15:22:06.324Z,16.73
2019-03-03T15:24:40.106Z,19.27
2019-03-03T15:27:14.307Z,18.77
2019-03-03T15:29:47.944Z,13.17
2019-03-03T15:32:21.732Z,19.70
2019-03-03T15:34:55.396Z,16.40
2019-03-03T15:37:29.302Z,14.13
2019-03-03T15:40:03.134Z,15.70
2019-03-03T15:42:36.893Z,15.33
2019-03-03T15:45:13.890Z,15.13
2019-03-03T15:47:47.953Z,15.67
2019-03-03T15:50:22.985Z,14.27
2019-03-03T15:52:57.612Z,15.10
2019-03-03T15:55:32.385Z,14.53
2019-03-03T15:58:06.090Z,17.13
2019-03-03T16:00:41.725Z,13.33
2019-03-03T16:03:15.851Z,12.43
2019-03-03T16:05:49.609Z,13.60
2019-03-03T16:08:23.474Z,11.63
2019-03-03T16:10:57.105Z,14.67
2019-03-03T16:13:30.800Z,13.00
2019-03-03T16:16:05.414Z,12.87
2019-03-03T16:18:39.093Z,14.40
2019-03-03T16:21:12.795Z,13.30
2019-03-03T16:23:46.571Z,14.97
2019-03-03T16:26:20.275Z,18.53
2019-03-03T16:28:54.050Z,14.57
2019-03-03T16:31:27.786Z,16.20
2019-03-03T16:34:01.413Z,18.33
2019-03-03T16:36:35.118Z,15.67
2019-03-03T16:39:09.133Z,20.43
2019-03-03T16:41:42.906Z,14.83
2019-03-03T16:44:16.720Z,17.77
2019-03-03T16:46:50.488Z,17.57
2019-03-03T16:49:24.350Z,17.60
2019-03-03T16:51:58.124Z,17.27
2019-03-03T16:54:31.786Z,15.97
2019-03-03T16:57:05.625Z,20.13
2019-03-03T16:59:39.382Z,14.10
2019-03-03T17:02:13.070Z,16.20
2019-03-03T17:04:47.030Z,18.00
2019-03-03T17:07:20.642Z,17.00
2019-03-03T17:09:54.304Z,16.30
2019-03-03T17:12:28.107Z,16.33
2019-03-03T17:15:01.732Z,18.80
2019-03-03T17:17:35.586Z,15.13
2019-03-03T17:20:10.586Z,14.83
2019-03-03T17:22:44.203Z,17.50
2019-03-03T17:25:26.183Z,17.73
2019-03-03T17:27:59.877Z,15.43
2019-03-03T17:30:33.585Z,15.37
2019-03-03T17:33:07.336Z,18.17
2019-03-03T17:35:41.114Z,16.90
2019-03-03T17:38:18.008Z,18.27
2019-03-03T17:40:51.925Z,15.90
2019-03-03T17:43:25.863Z,16.57
2019-03-03T17:45:59.946Z,17.33
2019-03-03T17:48:34.196Z,16.77
2019-03-03T17:51:08.049Z,16.63
2019-03-03T17:53:42.465Z,16.23
2019-03-03T17:56:16.956Z,16.70
2019-03-03T17:58:51.060Z,19.27
2019-03-03T18:01:24.927Z,18.27
2019-03-03T18:03:58.798Z,15.50
2019-03-03T18:06:38.855Z,14.57
2019-03-03T18:09:17.223Z,14.43
2019-03-03T18:11:51.450Z,15.73
2019-03-03T18:14:25.493Z,13.83
2019-03-03T18:16:59.134Z,17.40
2019-03-03T18:19:32.868Z,15.37
2019-03-03T18:22:06.635Z,15.57
2019-03-03T18:24:40.292Z,12.77
2019-03-03T18:27:14.205Z,14.10
2019-03-03T18:29:47.897Z,14.17
2019-03-03T18:32:21.697Z,15.33
2019-03-03T18:34:55.592Z,16.10
2019-03-03T18:37:29.381Z,14.73
2019-03-03T18:40:03.529Z,15.87
2019-03-03T18:42:37.177Z,15.63
2019-03-03T18:45:14.656Z,13.63
2019-03-03T18:47:52.140Z,15.40
2019-03-03T18:50:30.138Z,16.27
2019-03-03T18:53:03.867Z,16.60
2019-03-03T18:55:37.714Z,14.23
2019-03-03T18:58:11.468Z,15.30
2019-03-03T19:00:45.347Z,15.40
2019-03-03T19:03:21.643Z,15.77
2019-03-03T19:05:56.040Z,16.00
2019-03-03T19:08:31.541Z,14.13
2019-03-03T19:11:06.730Z,16.03
2019-03-03T19:13:41.245Z,20.27
2019-03-03T19:16:15.053Z,18.77
2019-03-03T19:18:48.733Z,21.53
2019-03-03T19:21:22.501Z,20.40
2019-03-03T19:23:56.261Z,16.70
2019-03-03T19:26:29.935Z,20.20
2019-03-03T19:29:03.763Z,16.77
2019-03-03T19:31:37.541Z,15.07
2019-03-03T19:34:11.887Z,16.87
2019-03-03T19:36:45.903Z,23.37
2019-03-03T19:39:19.878Z,16.13
2019-03-03T19:41:53.600Z,17.60
2019-03-03T19:44:27.382Z,17.77
2019-03-03T19:47:01.215Z,14.93
2019-03-03T19:49:34.984Z,17.37
2019-03-03T19:52:08.825Z,16.17
2019-03-03T19:54:42.600Z,20.73
2019-03-03T19:57:17.969Z,16.90
2019-03-03T19:59:51.772Z,18.33
2019-03-03T20:02:25.560Z,23.93
2019-03-03T20:04:59.304Z,21.13
2019-03-03T20:07:33.059Z,20.90
2019-03-03T20:10:10.070Z,23.83
2019-03-03T20:12:43.873Z,18.67
2019-03-03T20:15:17.678Z,20.33
2019-03-03T20:17:51.474Z,20.63
2019-03-03T20:20:25.288Z,23.93
2019-03-03T20:22:59.179Z,21.33
2019-03-03T20:25:32.784Z,23.73
2019-03-03T20:28:07.738Z,23.67
2019-03-03T20:30:42.289Z,28.10
2019-03-03T20:33:15.977Z,28.10
2019-03-03T20:35:49.679Z,27.90
2019-03-03T20:38:23.472Z,28.43
2019-03-03T20:40:57.257Z,35.23
2019-03-03T20:43:33.995Z,35.93
2019-03-03T20:46:10.511Z,35.47
2019-03-03T20:48:44.648Z,33.13
2019-03-03T20:51:18.469Z,26.27
2019-03-03T20:53:52.479Z,25.10
2019-03-03T20:56:26.299Z,27.03
2019-03-03T20:59:00.053Z,25.63
2019-03-03T21:01:33.936Z,24.53
2019-03-03T21:04:07.823Z,19.67
2019-03-03T21:06:41.598Z,14.83
2019-03-03T21:09:15.609Z,16.20
2019-03-03T21:11:49.303Z,15.83
2019-03-03T21:14:23.173Z,13.53
2019-03-03T21:16:57.040Z,16.17
2019-03-03T21:19:31.320Z,13.33
2019-03-03T21:22:05.222Z,13.40
2019-03-03T21:24:38.972Z,17.30
2019-03-03T21:27:12.689Z,18.63
2019-03-03T21:29:46.466Z,14.80
2019-03-03T21:32:20.065Z,16.93
2019-03-03T21:34:53.857Z,13.47
2019-03-03T21:37:27.625Z,11.93
2019-03-03T21:40:01.300Z,14.33
2019-03-03T21:42:35.001Z,14.37
2019-03-03T21:45:14.337Z,12.80
2019-03-03T21:47:48.100Z,14.57
2019-03-03T21:50:23.996Z,17.80
2019-03-03T21:52:57.893Z,12.00
2019-03-03T21:55:31.604Z,12.17
2019-03-03T21:58:07.138Z,12.50
2019-03-03T22:00:42.311Z,13.07
2019-03-03T22:03:16.029Z,10.43
2019-03-03T22:05:49.625Z,15.03
2019-03-03T22:08:23.433Z,10.83
2019-03-03T22:10:57.183Z,15.20
2019-03-03T22:13:30.795Z,14.77
2019-03-03T22:16:04.624Z,12.43
2019-03-03T22:18:38.428Z,12.27
2019-03-03T22:21:13.229Z,14.70
2019-03-03T22:23:46.856Z,14.43
2019-03-03T22:26:20.604Z,18.00
2019-03-03T22:28:54.465Z,18.30
2019-03-03T22:31:28.681Z,17.80
2019-03-03T22:34:02.332Z,20.83
2019-03-03T22:36:35.988Z,20.23
2019-03-03T22:39:09.843Z,16.57
2019-03-03T22:41:43.489Z,14.27
2019-03-03T22:44:17.137Z,18.87
2019-03-03T22:46:51.424Z,14.07
2019-03-03T22:49:25.056Z,17.13
2019-03-03T22:51:58.777Z,15.40
2019-03-03T22:54:32.525Z,14.50
2019-03-03T22:57:07.103Z,12.80
2019-03-03T22:59:40.831Z,11.97
2019-03-03T23:02:16.164Z,13.77
2019-03-03T23:04:55.929Z,14.63
2019-03-03T23:07:39.829Z,13.07
2019-03-03T23:10:37.548Z,12.33
2019-03-03T23:13:26.074Z,12.47
2019-03-03T23:16:27.042Z,13.80
2019-03-03T23:19:29.479Z,20.90
2019-03-03T23:22:24.163Z,24.10
2019-03-03T23:25:23.361Z,18.30
2019-03-03T23:27:57.032Z,17.60
2019-03-03T23:30:30.874Z,17.57
2019-03-03T23:33:05.056Z,14.77
2019-03-03T23:35:38.803Z,16.13
2019-03-03T23:38:12.671Z,13.63
2019-03-03T23:40:46.414Z,17.10
2019-03-03T23:43:20.107Z,11.77
2019-03-03T23:45:54.049Z,13.57
2019-03-03T23:48:27.686Z,14.27
2019-03-03T23:51:01.355Z,13.30
2019-03-03T23:53:35.439Z,13.43
2019-03-03T23:56:09.155Z,13.47
2019-03-03T23:58:42.894Z,14.53
